sensor_id;sensor_type;location;lat;lon;timestamp;P1;durP1;ratioP1;P2;durP2;ratioP2
70477;SDS011;57956;53.362;-1.518;2022-11-20T00:02:16;13.33;;;5.43;;
70477;SDS011;57956;53.362;-1.518;2022-11-20T00:04:41;12.60;;;4.10;;
70477;SDS011;57956;53.362;-1.518;2022-11-20T00:07:06;8.50;;;2.53;;
70477;SDS011;57956;53.362;-1.518;2022-11-20T00:09:31;7.50;;;3.27;;
70477;SDS011;57956;53.362;-1.518;2022-11-20T00:11:57;11.30;;;3.77;;
70477;SDS011;57956;53.362;-1.518;2022-11-20T00:14:22;11.10;;;4.78;;
70477;SDS011;57956;53.362;-1.518;2022-11-20T00:16:47;12.90;;;4.40;;
70477;SDS011;57956;53.362;-1.518;2022-11-20T00:19:12;11.53;;;4.97;;
70477;SDS011;57956;53.362;-1.518;2022-11-20T00:21:40;10.03;;;4.23;;
70477;SDS011;57956;53.362;-1.518;2022-11-20T00:24:07;11.32;;;4.15;;
70477;SDS011;57956;53.362;-1.518;2022-11-20T00:26:33;11.53;;;5.47;;
70477;SDS011;57956;53.362;-1.518;2022-11-20T00:28:59;11.70;;;4.28;;
70477;SDS011;57956;53.362;-1.518;2022-11-20T00:31:25;11.32;;;5.00;;
70477;SDS011;57956;53.362;-1.518;2022-11-20T00:33:51;17.87;;;4.93;;
70477;SDS011;57956;53.362;-1.518;2022-11-20T00:36:18;13.70;;;4.07;;
70477;SDS011;57956;53.362;-1.518;2022-11-20T00:38:43;10.45;;;4.22;;
70477;SDS011;57956;53.362;-1.518;2022-11-20T00:41:09;10.03;;;3.43;;
70477;SDS011;57956;53.362;-1.518;2022-11-20T00:43:36;10.60;;;3.97;;
70477;SDS011;57956;53.362;-1.518;2022-11-20T00:46:02;14.45;;;4.25;;
70477;SDS011;57956;53.362;-1.518;2022-11-20T00:48:28;13.65;;;4.82;;
70477;SDS011;57956;53.362;-1.518;2022-11-20T00:50:54;11.47;;;3.83;;
70477;SDS011;57956;53.362;-1.518;2022-11-20T00:53:20;8.77;;;3.40;;
70477;SDS011;57956;53.362;-1.518;2022-11-20T00:55:58;8.90;;;3.33;;
70477;SDS011;57956;53.362;-1.518;2022-11-20T00:58:24;9.20;;;3.80;;
70477;SDS011;57956;53.362;-1.518;2022-11-20T01:00:50;11.70;;;4.55;;
70477;SDS011;57956;53.362;-1.518;2022-11-20T01:03:16;10.63;;;3.77;;
70477;SDS011;57956;53.362;-1.518;2022-11-20T01:05:42;10.73;;;4.13;;
70477;SDS011;57956;53.362;-1.518;2022-11-20T01:08:23;10.63;;;2.60;;
70477;SDS011;57956;53.362;-1.518;2022-11-20T01:10:48;11.47;;;3.93;;
70477;SDS011;57956;53.362;-1.518;2022-11-20T01:13:13;19.13;;;6.27;;
70477;SDS011;57956;53.362;-1.518;2022-11-20T01:16:01;11.88;;;3.90;;
70477;SDS011;57956;53.362;-1.518;2022-11-20T01:18:27;13.68;;;3.40;;
70477;SDS011;57956;53.362;-1.518;2022-11-20T01:20:52;13.00;;;3.63;;
70477;SDS011;57956;53.362;-1.518;2022-11-20T01:23:18;8.70;;;3.97;;
70477;SDS011;57956;53.362;-1.518;2022-11-20T01:25:43;12.60;;;5.07;;
70477;SDS011;57956;53.362;-1.518;2022-11-20T01:28:08;11.47;;;5.57;;
70477;SDS011;57956;53.362;-1.518;2022-11-20T01:30:33;11.37;;;4.03;;
70477;SDS011;57956;53.362;-1.518;2022-11-20T01:32:59;22.43;;;4.87;;
70477;SDS011;57956;53.362;-1.518;2022-11-20T01:35:24;8.43;;;3.60;;
70477;SDS011;57956;53.362;-1.518;2022-11-20T01:37:49;10.70;;;3.73;;
70477;SDS011;57956;53.362;-1.518;2022-11-20T01:40:15;15.13;;;4.47;;
70477;SDS011;57956;53.362;-1.518;2022-11-20T01:42:44;12.73;;;3.60;;
70477;SDS011;57956;53.362;-1.518;2022-11-20T01:48:10;11.48;;;2.95;;
70477;SDS011;57956;53.362;-1.518;2022-11-20T01:50:36;16.30;;;3.92;;
70477;SDS011;57956;53.362;-1.518;2022-11-20T01:53:02;11.90;;;2.80;;
70477;SDS011;57956;53.362;-1.518;2022-11-20T01:55:29;11.00;;;4.72;;
70477;SDS011;57956;53.362;-1.518;2022-11-20T01:57:55;9.80;;;2.53;;
70477;SDS011;57956;53.362;-1.518;2022-11-20T02:00:21;11.77;;;2.73;;
70477;SDS011;57956;53.362;-1.518;2022-11-20T02:03:29;10.60;;;3.60;;
70477;SDS011;57956;53.362;-1.518;2022-11-20T02:05:39;8.15;;;3.45;;
70477;SDS011;57956;53.362;-1.518;2022-11-20T02:08:08;10.60;;;3.13;;
70477;SDS011;57956;53.362;-1.518;2022-11-20T02:10:33;8.57;;;2.73;;
70477;SDS011;57956;53.362;-1.518;2022-11-20T02:12:59;9.30;;;2.57;;
70477;SDS011;57956;53.362;-1.518;2022-11-20T02:15:43;10.35;;;3.30;;
70477;SDS011;57956;53.362;-1.518;2022-11-20T02:18:09;8.13;;;3.23;;
70477;SDS011;57956;53.362;-1.518;2022-11-20T02:20:34;14.90;;;3.55;;
70477;SDS011;57956;53.362;-1.518;2022-11-20T02:23:03;6.63;;;2.27;;
70477;SDS011;57956;53.362;-1.518;2022-11-20T02:25:28;13.52;;;3.53;;
70477;SDS011;57956;53.362;-1.518;2022-11-20T02:27:55;10.15;;;3.60;;
70477;SDS011;57956;53.362;-1.518;2022-11-20T02:30:21;12.53;;;5.47;;
70477;SDS011;57956;53.362;-1.518;2022-11-20T02:32:46;9.17;;;3.63;;
70477;SDS011;57956;53.362;-1.518;2022-11-20T02:37:42;10.15;;;3.92;;
70477;SDS011;57956;53.362;-1.518;2022-11-20T02:40:08;9.47;;;3.43;;
70477;SDS011;57956;53.362;-1.518;2022-11-20T02:42:34;10.87;;;3.87;;
70477;SDS011;57956;53.362;-1.518;2022-11-20T02:44:59;9.60;;;3.43;;
70477;SDS011;57956;53.362;-1.518;2022-11-20T02:47:25;13.17;;;3.47;;
70477;SDS011;57956;53.362;-1.518;2022-11-20T02:49:50;8.80;;;2.73;;
70477;SDS011;57956;53.362;-1.518;2022-11-20T02:52:15;8.38;;;2.38;;
70477;SDS011;57956;53.362;-1.518;2022-11-20T02:54:40;11.77;;;3.33;;
70477;SDS011;57956;53.362;-1.518;2022-11-20T02:57:06;6.17;;;1.97;;
70477;SDS011;57956;53.362;-1.518;2022-11-20T02:59:31;6.83;;;2.53;;
70477;SDS011;57956;53.362;-1.518;2022-11-20T03:01:56;5.33;;;2.73;;
70477;SDS011;57956;53.362;-1.518;2022-11-20T03:04:22;5.80;;;2.37;;
70477;SDS011;57956;53.362;-1.518;2022-11-20T03:06:47;7.45;;;2.38;;
70477;SDS011;57956;53.362;-1.518;2022-11-20T03:09:12;10.17;;;2.27;;
70477;SDS011;57956;53.362;-1.518;2022-11-20T03:11:38;4.73;;;2.03;;
70477;SDS011;57956;53.362;-1.518;2022-11-20T03:14:04;6.90;;;3.30;;
70477;SDS011;57956;53.362;-1.518;2022-11-20T03:16:30;8.27;;;2.28;;
70477;SDS011;57956;53.362;-1.518;2022-11-20T03:18:55;9.70;;;3.60;;
70477;SDS011;57956;53.362;-1.518;2022-11-20T03:21:20;6.57;;;2.03;;
70477;SDS011;57956;53.362;-1.518;2022-11-20T03:23:46;6.70;;;2.27;;
70477;SDS011;57956;53.362;-1.518;2022-11-20T03:26:13;5.18;;;2.08;;
70477;SDS011;57956;53.362;-1.518;2022-11-20T03:28:39;8.60;;;1.87;;
70477;SDS011;57956;53.362;-1.518;2022-11-20T03:31:11;9.48;;;2.90;;
70477;SDS011;57956;53.362;-1.518;2022-11-20T03:33:37;6.57;;;1.80;;
70477;SDS011;57956;53.362;-1.518;2022-11-20T03:36:07;10.73;;;2.00;;
70477;SDS011;57956;53.362;-1.518;2022-11-20T03:38:32;4.95;;;1.77;;
70477;SDS011;57956;53.362;-1.518;2022-11-20T03:40:58;6.90;;;1.57;;
70477;SDS011;57956;53.362;-1.518;2022-11-20T03:43:24;6.53;;;1.85;;
70477;SDS011;57956;53.362;-1.518;2022-11-20T03:45:50;7.60;;;2.10;;
70477;SDS011;57956;53.362;-1.518;2022-11-20T03:48:15;6.90;;;2.20;;
70477;SDS011;57956;53.362;-1.518;2022-11-20T03:50:40;7.87;;;1.57;;
70477;SDS011;57956;53.362;-1.518;2022-11-20T03:53:05;4.93;;;1.73;;
70477;SDS011;57956;53.362;-1.518;2022-11-20T03:55:31;6.50;;;2.70;;
70477;SDS011;57956;53.362;-1.518;2022-11-20T03:57:56;3.03;;;1.00;;
70477;SDS011;57956;53.362;-1.518;2022-11-20T04:00:21;4.67;;;1.07;;
70477;SDS011;57956;53.362;-1.518;2022-11-20T04:02:47;5.37;;;2.03;;
70477;SDS011;57956;53.362;-1.518;2022-11-20T04:05:12;4.43;;;1.63;;
70477;SDS011;57956;53.362;-1.518;2022-11-20T04:07:37;3.80;;;1.00;;
70477;SDS011;57956;53.362;-1.518;2022-11-20T04:10:02;3.43;;;1.93;;
70477;SDS011;57956;53.362;-1.518;2022-11-20T04:12:31;7.97;;;1.73;;
70477;SDS011;57956;53.362;-1.518;2022-11-20T04:14:56;4.82;;;1.02;;
70477;SDS011;57956;53.362;-1.518;2022-11-20T04:17:21;4.33;;;1.30;;
70477;SDS011;57956;53.362;-1.518;2022-11-20T04:19:47;8.83;;;1.80;;
70477;SDS011;57956;53.362;-1.518;2022-11-20T04:22:12;3.07;;;0.63;;
70477;SDS011;57956;53.362;-1.518;2022-11-20T04:24:37;3.93;;;1.10;;
70477;SDS011;57956;53.362;-1.518;2022-11-20T04:27:02;2.93;;;0.83;;
70477;SDS011;57956;53.362;-1.518;2022-11-20T04:29:28;4.00;;;1.27;;
70477;SDS011;57956;53.362;-1.518;2022-11-20T04:31:53;2.80;;;0.93;;
70477;SDS011;57956;53.362;-1.518;2022-11-20T04:34:18;2.65;;;0.75;;
70477;SDS011;57956;53.362;-1.518;2022-11-20T04:36:44;3.80;;;0.77;;
70477;SDS011;57956;53.362;-1.518;2022-11-20T04:39:13;2.83;;;0.80;;
70477;SDS011;57956;53.362;-1.518;2022-11-20T04:41:39;2.85;;;1.05;;
70477;SDS011;57956;53.362;-1.518;2022-11-20T04:44:04;2.43;;;1.07;;
70477;SDS011;57956;53.362;-1.518;2022-11-20T04:46:31;3.43;;;1.30;;
70477;SDS011;57956;53.362;-1.518;2022-11-20T04:48:56;4.95;;;0.95;;
70477;SDS011;57956;53.362;-1.518;2022-11-20T04:51:22;5.63;;;1.33;;
70477;SDS011;57956;53.362;-1.518;2022-11-20T04:53:47;2.83;;;0.40;;
70477;SDS011;57956;53.362;-1.518;2022-11-20T04:56:12;2.33;;;0.80;;
70477;SDS011;57956;53.362;-1.518;2022-11-20T04:58:38;1.77;;;0.57;;
70477;SDS011;57956;53.362;-1.518;2022-11-20T05:01:08;3.05;;;0.70;;
70477;SDS011;57956;53.362;-1.518;2022-11-20T05:03:34;2.10;;;0.53;;
70477;SDS011;57956;53.362;-1.518;2022-11-20T05:06:00;4.13;;;0.82;;
70477;SDS011;57956;53.362;-1.518;2022-11-20T05:08:25;2.63;;;0.70;;
70477;SDS011;57956;53.362;-1.518;2022-11-20T05:10:50;3.77;;;0.40;;
70477;SDS011;57956;53.362;-1.518;2022-11-20T05:13:16;2.30;;;0.57;;
70477;SDS011;57956;53.362;-1.518;2022-11-20T05:15:41;2.00;;;0.20;;
70477;SDS011;57956;53.362;-1.518;2022-11-20T05:18:06;5.13;;;0.60;;
70477;SDS011;57956;53.362;-1.518;2022-11-20T05:20:32;3.05;;;0.55;;
70477;SDS011;57956;53.362;-1.518;2022-11-20T05:22:57;2.63;;;0.63;;
70477;SDS011;57956;53.362;-1.518;2022-11-20T05:25:23;2.53;;;0.47;;
70477;SDS011;57956;53.362;-1.518;2022-11-20T05:27:48;1.83;;;0.37;;
70477;SDS011;57956;53.362;-1.518;2022-11-20T05:30:13;3.00;;;0.30;;
70477;SDS011;57956;53.362;-1.518;2022-11-20T05:32:40;5.30;;;1.17;;
70477;SDS011;57956;53.362;-1.518;2022-11-20T05:35:06;1.63;;;0.40;;
70477;SDS011;57956;53.362;-1.518;2022-11-20T05:37:31;2.20;;;0.20;;
70477;SDS011;57956;53.362;-1.518;2022-11-20T05:39:56;1.23;;;0.20;;
70477;SDS011;57956;53.362;-1.518;2022-11-20T05:42:22;1.27;;;0.20;;
70477;SDS011;57956;53.362;-1.518;2022-11-20T05:44:59;0.95;;;0.10;;
70477;SDS011;57956;53.362;-1.518;2022-11-20T05:47:25;1.00;;;0.10;;
70477;SDS011;57956;53.362;-1.518;2022-11-20T05:49:51;0.95;;;0.10;;
70477;SDS011;57956;53.362;-1.518;2022-11-20T05:52:16;1.07;;;0.10;;
70477;SDS011;57956;53.362;-1.518;2022-11-20T05:54:42;1.30;;;0.20;;
70477;SDS011;57956;53.362;-1.518;2022-11-20T05:57:07;1.03;;;0.10;;
70477;SDS011;57956;53.362;-1.518;2022-11-20T05:59:32;1.83;;;0.27;;
70477;SDS011;57956;53.362;-1.518;2022-11-20T06:01:57;1.37;;;0.17;;
70477;SDS011;57956;53.362;-1.518;2022-11-20T06:04:23;1.35;;;0.30;;
70477;SDS011;57956;53.362;-1.518;2022-11-20T06:06:48;1.20;;;0.23;;
70477;SDS011;57956;53.362;-1.518;2022-11-20T06:09:13;1.23;;;0.10;;
70477;SDS011;57956;53.362;-1.518;2022-11-20T06:11:41;1.67;;;0.52;;
70477;SDS011;57956;53.362;-1.518;2022-11-20T06:14:06;2.03;;;0.30;;
70477;SDS011;57956;53.362;-1.518;2022-11-20T06:16:31;1.13;;;0.20;;
70477;SDS011;57956;53.362;-1.518;2022-11-20T06:18:57;1.33;;;0.30;;
70477;SDS011;57956;53.362;-1.518;2022-11-20T06:21:22;1.47;;;0.20;;
70477;SDS011;57956;53.362;-1.518;2022-11-20T06:23:48;2.70;;;0.65;;
70477;SDS011;57956;53.362;-1.518;2022-11-20T06:26:18;1.35;;;0.15;;
70477;SDS011;57956;53.362;-1.518;2022-11-20T06:28:43;1.40;;;0.20;;
70477;SDS011;57956;53.362;-1.518;2022-11-20T06:31:10;1.67;;;0.20;;
70477;SDS011;57956;53.362;-1.518;2022-11-20T06:33:35;1.38;;;0.10;;
70477;SDS011;57956;53.362;-1.518;2022-11-20T06:36:02;4.93;;;0.60;;
70477;SDS011;57956;53.362;-1.518;2022-11-20T06:38:27;2.00;;;0.20;;
70477;SDS011;57956;53.362;-1.518;2022-11-20T06:40:53;1.20;;;0.53;;
70477;SDS011;57956;53.362;-1.518;2022-11-20T06:43:19;2.80;;;1.00;;
70477;SDS011;57956;53.362;-1.518;2022-11-20T06:45:44;2.20;;;0.20;;
70477;SDS011;57956;53.362;-1.518;2022-11-20T06:48:09;1.87;;;0.40;;
70477;SDS011;57956;53.362;-1.518;2022-11-20T06:50:38;1.97;;;0.20;;
70477;SDS011;57956;53.362;-1.518;2022-11-20T06:53:04;1.42;;;0.40;;
70477;SDS011;57956;53.362;-1.518;2022-11-20T06:55:30;1.40;;;0.22;;
70477;SDS011;57956;53.362;-1.518;2022-11-20T06:57:55;1.20;;;0.10;;
70477;SDS011;57956;53.362;-1.518;2022-11-20T07:00:20;2.17;;;0.30;;
70477;SDS011;57956;53.362;-1.518;2022-11-20T07:02:46;1.87;;;0.50;;
70477;SDS011;57956;53.362;-1.518;2022-11-20T07:05:12;1.05;;;0.10;;
70477;SDS011;57956;53.362;-1.518;2022-11-20T07:07:37;1.87;;;0.50;;
70477;SDS011;57956;53.362;-1.518;2022-11-20T07:10:02;2.20;;;0.33;;
70477;SDS011;57956;53.362;-1.518;2022-11-20T07:12:28;3.10;;;0.30;;
70477;SDS011;57956;53.362;-1.518;2022-11-20T07:14:53;4.32;;;1.38;;
70477;SDS011;57956;53.362;-1.518;2022-11-20T07:17:18;1.63;;;0.33;;
70477;SDS011;57956;53.362;-1.518;2022-11-20T07:19:44;1.70;;;0.20;;
70477;SDS011;57956;53.362;-1.518;2022-11-20T07:22:09;1.23;;;0.20;;
70477;SDS011;57956;53.362;-1.518;2022-11-20T07:24:34;2.37;;;0.53;;
70477;SDS011;57956;53.362;-1.518;2022-11-20T07:26:59;1.17;;;0.20;;
70477;SDS011;57956;53.362;-1.518;2022-11-20T07:29:25;2.17;;;0.50;;
70477;SDS011;57956;53.362;-1.518;2022-11-20T07:31:50;2.27;;;0.40;;
70477;SDS011;57956;53.362;-1.518;2022-11-20T07:34:15;2.30;;;0.80;;
70477;SDS011;57956;53.362;-1.518;2022-11-20T07:36:40;1.77;;;0.23;;
70477;SDS011;57956;53.362;-1.518;2022-11-20T07:39:06;1.60;;;0.50;;
70477;SDS011;57956;53.362;-1.518;2022-11-20T07:41:31;1.93;;;0.30;;
70477;SDS011;57956;53.362;-1.518;2022-11-20T07:43:56;1.77;;;0.20;;
70477;SDS011;57956;53.362;-1.518;2022-11-20T07:46:22;2.83;;;0.30;;
70477;SDS011;57956;53.362;-1.518;2022-11-20T07:48:47;1.77;;;0.30;;
70477;SDS011;57956;53.362;-1.518;2022-11-20T07:51:12;3.07;;;0.90;;
70477;SDS011;57956;53.362;-1.518;2022-11-20T07:53:38;2.17;;;0.45;;
70477;SDS011;57956;53.362;-1.518;2022-11-20T07:56:04;2.43;;;0.53;;
70477;SDS011;57956;53.362;-1.518;2022-11-20T07:58:29;3.00;;;0.70;;
70477;SDS011;57956;53.362;-1.518;2022-11-20T08:00:55;2.00;;;0.70;;
70477;SDS011;57956;53.362;-1.518;2022-11-20T08:03:20;1.93;;;0.40;;
70477;SDS011;57956;53.362;-1.518;2022-11-20T08:05:45;8.53;;;0.57;;
70477;SDS011;57956;53.362;-1.518;2022-11-20T08:08:11;4.00;;;0.67;;
70477;SDS011;57956;53.362;-1.518;2022-11-20T08:10:36;4.17;;;1.70;;
70477;SDS011;57956;53.362;-1.518;2022-11-20T08:13:01;2.30;;;0.60;;
70477;SDS011;57956;53.362;-1.518;2022-11-20T08:15:49;2.00;;;1.05;;
70477;SDS011;57956;53.362;-1.518;2022-11-20T08:18:17;3.53;;;0.30;;
70477;SDS011;57956;53.362;-1.518;2022-11-20T08:20:43;3.60;;;1.13;;
70477;SDS011;57956;53.362;-1.518;2022-11-20T08:23:08;4.80;;;0.83;;
70477;SDS011;57956;53.362;-1.518;2022-11-20T08:25:35;3.73;;;1.17;;
70477;SDS011;57956;53.362;-1.518;2022-11-20T08:28:01;2.60;;;0.60;;
70477;SDS011;57956;53.362;-1.518;2022-11-20T08:30:27;3.42;;;0.90;;
70477;SDS011;57956;53.362;-1.518;2022-11-20T08:32:52;4.72;;;0.63;;
70477;SDS011;57956;53.362;-1.518;2022-11-20T08:35:18;2.30;;;0.60;;
70477;SDS011;57956;53.362;-1.518;2022-11-20T08:37:46;2.40;;;0.67;;
70477;SDS011;57956;53.362;-1.518;2022-11-20T08:40:11;3.38;;;0.63;;
70477;SDS011;57956;53.362;-1.518;2022-11-20T08:42:36;3.13;;;0.67;;
70477;SDS011;57956;53.362;-1.518;2022-11-20T08:45:02;4.17;;;1.20;;
70477;SDS011;57956;53.362;-1.518;2022-11-20T08:47:27;3.13;;;0.87;;
70477;SDS011;57956;53.362;-1.518;2022-11-20T08:49:53;2.43;;;0.40;;
70477;SDS011;57956;53.362;-1.518;2022-11-20T08:52:20;5.07;;;0.47;;
70477;SDS011;57956;53.362;-1.518;2022-11-20T08:54:45;2.42;;;0.40;;
70477;SDS011;57956;53.362;-1.518;2022-11-20T08:57:11;5.90;;;0.50;;
70477;SDS011;57956;53.362;-1.518;2022-11-20T08:59:36;2.80;;;0.77;;
70477;SDS011;57956;53.362;-1.518;2022-11-20T09:02:02;9.23;;;0.67;;
70477;SDS011;57956;53.362;-1.518;2022-11-20T09:04:27;2.90;;;0.50;;
70477;SDS011;57956;53.362;-1.518;2022-11-20T09:06:52;8.03;;;0.30;;
70477;SDS011;57956;53.362;-1.518;2022-11-20T09:09:17;1.80;;;0.37;;
70477;SDS011;57956;53.362;-1.518;2022-11-20T09:11:43;1.67;;;0.20;;
70477;SDS011;57956;53.362;-1.518;2022-11-20T09:14:09;5.40;;;0.57;;
70477;SDS011;57956;53.362;-1.518;2022-11-20T09:16:34;4.37;;;0.30;;
70477;SDS011;57956;53.362;-1.518;2022-11-20T09:18:59;6.37;;;0.80;;
70477;SDS011;57956;53.362;-1.518;2022-11-20T09:21:24;3.33;;;1.17;;
70477;SDS011;57956;53.362;-1.518;2022-11-20T09:23:50;1.47;;;0.20;;
70477;SDS011;57956;53.362;-1.518;2022-11-20T09:26:15;2.42;;;0.65;;
70477;SDS011;57956;53.362;-1.518;2022-11-20T09:28:40;5.80;;;0.77;;
70477;SDS011;57956;53.362;-1.518;2022-11-20T09:31:13;7.30;;;0.40;;
70477;SDS011;57956;53.362;-1.518;2022-11-20T09:33:41;3.42;;;1.15;;
70477;SDS011;57956;53.362;-1.518;2022-11-20T09:36:07;3.70;;;0.43;;
70477;SDS011;57956;53.362;-1.518;2022-11-20T09:38:32;2.40;;;0.50;;
70477;SDS011;57956;53.362;-1.518;2022-11-20T09:41:02;1.70;;;0.43;;
70477;SDS011;57956;53.362;-1.518;2022-11-20T09:43:50;2.22;;;0.40;;
70477;SDS011;57956;53.362;-1.518;2022-11-20T09:56:27;6.78;;;0.60;;
70477;SDS011;57956;53.362;-1.518;2022-11-20T09:58:54;2.88;;;0.50;;
70477;SDS011;57956;53.362;-1.518;2022-11-20T10:01:23;2.10;;;0.37;;
70477;SDS011;57956;53.362;-1.518;2022-11-20T10:06:21;1.60;;;0.30;;
70477;SDS011;57956;53.362;-1.518;2022-11-20T10:11:37;2.72;;;0.55;;
70477;SDS011;57956;53.362;-1.518;2022-11-20T10:26:24;1.90;;;0.30;;
70477;SDS011;57956;53.362;-1.518;2022-11-20T10:33:54;4.18;;;0.28;;
70477;SDS011;57956;53.362;-1.518;2022-11-20T10:36:25;3.20;;;0.53;;
70477;SDS011;57956;53.362;-1.518;2022-11-20T10:39:07;1.98;;;0.32;;
70477;SDS011;57956;53.362;-1.518;2022-11-20T10:41:40;3.78;;;0.55;;
70477;SDS011;57956;53.362;-1.518;2022-11-20T10:44:12;2.90;;;0.32;;
70477;SDS011;57956;53.362;-1.518;2022-11-20T10:46:48;4.78;;;0.57;;
70477;SDS011;57956;53.362;-1.518;2022-11-20T10:49:14;1.47;;;0.10;;
70477;SDS011;57956;53.362;-1.518;2022-11-20T10:57:07;5.93;;;0.60;;
70477;SDS011;57956;53.362;-1.518;2022-11-20T10:59:38;3.95;;;0.50;;
70477;SDS011;57956;53.362;-1.518;2022-11-20T11:02:20;1.30;;;0.20;;
70477;SDS011;57956;53.362;-1.518;2022-11-20T11:04:46;1.88;;;0.65;;
70477;SDS011;57956;53.362;-1.518;2022-11-20T11:07:15;1.77;;;0.27;;
70477;SDS011;57956;53.362;-1.518;2022-11-20T11:09:43;1.92;;;0.30;;
70477;SDS011;57956;53.362;-1.518;2022-11-20T11:12:09;11.43;;;0.68;;
70477;SDS011;57956;53.362;-1.518;2022-11-20T11:14:42;1.95;;;0.57;;
70477;SDS011;57956;53.362;-1.518;2022-11-20T11:17:17;3.08;;;0.65;;
70477;SDS011;57956;53.362;-1.518;2022-11-20T11:19:43;3.20;;;0.40;;
70477;SDS011;57956;53.362;-1.518;2022-11-20T11:22:10;6.07;;;0.77;;
70477;SDS011;57956;53.362;-1.518;2022-11-20T11:24:43;2.08;;;0.40;;
70477;SDS011;57956;53.362;-1.518;2022-11-20T11:27:15;2.15;;;0.55;;
70477;SDS011;57956;53.362;-1.518;2022-11-20T11:29:42;3.10;;;0.45;;
70477;SDS011;57956;53.362;-1.518;2022-11-20T11:32:11;3.67;;;0.83;;
70477;SDS011;57956;53.362;-1.518;2022-11-20T11:34:36;6.65;;;0.50;;
70477;SDS011;57956;53.362;-1.518;2022-11-20T11:37:02;1.57;;;0.23;;
70477;SDS011;57956;53.362;-1.518;2022-11-20T11:39:28;5.18;;;1.30;;
70477;SDS011;57956;53.362;-1.518;2022-11-20T11:42:03;2.88;;;0.50;;
70477;SDS011;57956;53.362;-1.518;2022-11-20T11:44:29;7.00;;;0.50;;
70477;SDS011;57956;53.362;-1.518;2022-11-20T11:47:26;3.33;;;1.00;;
70477;SDS011;57956;53.362;-1.518;2022-11-20T11:50:28;2.38;;;0.63;;
70477;SDS011;57956;53.362;-1.518;2022-11-20T11:52:48;5.72;;;1.42;;
70477;SDS011;57956;53.362;-1.518;2022-11-20T11:58:04;1.83;;;0.37;;
70477;SDS011;57956;53.362;-1.518;2022-11-20T12:00:31;2.70;;;0.68;;
70477;SDS011;57956;53.362;-1.518;2022-11-20T12:03:05;4.80;;;0.95;;
70477;SDS011;57956;53.362;-1.518;2022-11-20T12:05:38;4.85;;;0.60;;
70477;SDS011;57956;53.362;-1.518;2022-11-20T12:08:19;1.60;;;0.20;;
70477;SDS011;57956;53.362;-1.518;2022-11-20T12:11:06;4.40;;;0.30;;
70477;SDS011;57956;53.362;-1.518;2022-11-20T12:13:41;2.78;;;0.30;;
70477;SDS011;57956;53.362;-1.518;2022-11-20T12:16:10;3.40;;;0.40;;
70477;SDS011;57956;53.362;-1.518;2022-11-20T12:18:36;9.55;;;0.80;;
70477;SDS011;57956;53.362;-1.518;2022-11-20T12:29:01;2.35;;;0.10;;
70477;SDS011;57956;53.362;-1.518;2022-11-20T12:37:08;1.55;;;0.13;;
70477;SDS011;57956;53.362;-1.518;2022-11-20T12:39:33;5.70;;;0.20;;
70477;SDS011;57956;53.362;-1.518;2022-11-20T12:52:30;1.00;;;0.10;;
70477;SDS011;57956;53.362;-1.518;2022-11-20T13:00:18;2.07;;;0.60;;
70477;SDS011;57956;53.362;-1.518;2022-11-20T13:07:44;1.83;;;0.23;;
70477;SDS011;57956;53.362;-1.518;2022-11-20T13:12:57;8.10;;;0.47;;
70477;SDS011;57956;53.362;-1.518;2022-11-20T13:17:57;1.87;;;0.30;;
70477;SDS011;57956;53.362;-1.518;2022-11-20T13:20:23;1.52;;;0.30;;
70477;SDS011;57956;53.362;-1.518;2022-11-20T13:22:52;2.60;;;0.57;;
70477;SDS011;57956;53.362;-1.518;2022-11-20T13:25:32;7.07;;;0.55;;
70477;SDS011;57956;53.362;-1.518;2022-11-20T13:28:43;2.28;;;0.40;;
70477;SDS011;57956;53.362;-1.518;2022-11-20T13:30:50;2.88;;;0.40;;
70477;SDS011;57956;53.362;-1.518;2022-11-20T13:33:23;2.83;;;0.30;;
70477;SDS011;57956;53.362;-1.518;2022-11-20T13:36:00;1.97;;;0.20;;
70477;SDS011;57956;53.362;-1.518;2022-11-20T13:38:26;2.30;;;0.40;;
70477;SDS011;57956;53.362;-1.518;2022-11-20T13:40:53;1.60;;;0.20;;
70477;SDS011;57956;53.362;-1.518;2022-11-20T13:46:04;4.43;;;0.57;;
70477;SDS011;57956;53.362;-1.518;2022-11-20T13:48:30;4.25;;;0.55;;
70477;SDS011;57956;53.362;-1.518;2022-11-20T13:51:02;1.80;;;0.30;;
70477;SDS011;57956;53.362;-1.518;2022-11-20T14:01:16;8.57;;;0.52;;
70477;SDS011;57956;53.362;-1.518;2022-11-20T14:03:42;3.30;;;0.30;;
70477;SDS011;57956;53.362;-1.518;2022-11-20T14:06:11;3.53;;;0.50;;
70477;SDS011;57956;53.362;-1.518;2022-11-20T14:08:46;2.30;;;0.32;;
70477;SDS011;57956;53.362;-1.518;2022-11-20T14:11:16;3.17;;;0.30;;
70477;SDS011;57956;53.362;-1.518;2022-11-20T14:13:59;3.67;;;0.57;;
70477;SDS011;57956;53.362;-1.518;2022-11-20T14:16:25;1.42;;;0.40;;
70477;SDS011;57956;53.362;-1.518;2022-11-20T14:18:50;1.40;;;0.20;;
70477;SDS011;57956;53.362;-1.518;2022-11-20T14:21:29;1.00;;;0.10;;
70477;SDS011;57956;53.362;-1.518;2022-11-20T14:24:07;8.80;;;0.20;;
70477;SDS011;57956;53.362;-1.518;2022-11-20T14:26:34;8.90;;;1.55;;
70477;SDS011;57956;53.362;-1.518;2022-11-20T14:29:01;6.27;;;0.80;;
70477;SDS011;57956;53.362;-1.518;2022-11-20T14:31:26;11.53;;;1.07;;
70477;SDS011;57956;53.362;-1.518;2022-11-20T14:33:53;2.25;;;0.60;;
70477;SDS011;57956;53.362;-1.518;2022-11-20T14:36:20;6.13;;;0.57;;
70477;SDS011;57956;53.362;-1.518;2022-11-20T14:38:46;5.90;;;0.70;;
70477;SDS011;57956;53.362;-1.518;2022-11-20T14:41:18;1.43;;;0.30;;
70477;SDS011;57956;53.362;-1.518;2022-11-20T14:43:49;1.95;;;0.47;;
70477;SDS011;57956;53.362;-1.518;2022-11-20T14:46:16;4.07;;;1.08;;
70477;SDS011;57956;53.362;-1.518;2022-11-20T14:48:43;5.80;;;1.33;;
70477;SDS011;57956;53.362;-1.518;2022-11-20T14:51:10;3.15;;;0.30;;
70477;SDS011;57956;53.362;-1.518;2022-11-20T14:53:36;1.73;;;0.40;;
70477;SDS011;57956;53.362;-1.518;2022-11-20T14:56:01;6.40;;;0.40;;
70477;SDS011;57956;53.362;-1.518;2022-11-20T14:58:28;1.67;;;0.47;;
70477;SDS011;57956;53.362;-1.518;2022-11-20T15:00:55;3.45;;;0.47;;
70477;SDS011;57956;53.362;-1.518;2022-11-20T15:03:21;14.10;;;1.00;;
70477;SDS011;57956;53.362;-1.518;2022-11-20T15:05:48;1.27;;;0.20;;
70477;SDS011;57956;53.362;-1.518;2022-11-20T15:08:13;5.18;;;0.52;;
70477;SDS011;57956;53.362;-1.518;2022-11-20T15:10:39;1.30;;;0.10;;
70477;SDS011;57956;53.362;-1.518;2022-11-20T15:13:18;3.65;;;0.45;;
70477;SDS011;57956;53.362;-1.518;2022-11-20T15:15:48;1.90;;;0.20;;
70477;SDS011;57956;53.362;-1.518;2022-11-20T15:18:18;1.00;;;0.10;;
70477;SDS011;57956;53.362;-1.518;2022-11-20T15:20:44;1.40;;;0.28;;
70477;SDS011;57956;53.362;-1.518;2022-11-20T15:23:14;2.27;;;0.57;;
70477;SDS011;57956;53.362;-1.518;2022-11-20T15:25:39;5.82;;;0.85;;
70477;SDS011;57956;53.362;-1.518;2022-11-20T15:28:08;3.00;;;0.30;;
70477;SDS011;57956;53.362;-1.518;2022-11-20T15:30:38;2.23;;;0.10;;
70477;SDS011;57956;53.362;-1.518;2022-11-20T15:33:04;0.87;;;0.30;;
70477;SDS011;57956;53.362;-1.518;2022-11-20T15:35:29;1.17;;;0.23;;
70477;SDS011;57956;53.362;-1.518;2022-11-20T15:37:55;1.70;;;0.20;;
70477;SDS011;57956;53.362;-1.518;2022-11-20T15:40:20;1.73;;;0.17;;
70477;SDS011;57956;53.362;-1.518;2022-11-20T15:42:45;3.93;;;0.37;;
70477;SDS011;57956;53.362;-1.518;2022-11-20T15:45:27;2.77;;;0.30;;
70477;SDS011;57956;53.362;-1.518;2022-11-20T15:47:54;1.85;;;0.10;;
70477;SDS011;57956;53.362;-1.518;2022-11-20T15:50:19;2.00;;;0.60;;
70477;SDS011;57956;53.362;-1.518;2022-11-20T15:52:45;1.20;;;0.10;;
70477;SDS011;57956;53.362;-1.518;2022-11-20T15:55:10;2.63;;;0.53;;
70477;SDS011;57956;53.362;-1.518;2022-11-20T15:57:35;2.00;;;0.23;;
70477;SDS011;57956;53.362;-1.518;2022-11-20T16:00:00;9.40;;;0.40;;
70477;SDS011;57956;53.362;-1.518;2022-11-20T16:02:26;1.40;;;0.30;;
70477;SDS011;57956;53.362;-1.518;2022-11-20T16:04:51;2.43;;;0.53;;
70477;SDS011;57956;53.362;-1.518;2022-11-20T16:07:16;1.03;;;0.10;;
70477;SDS011;57956;53.362;-1.518;2022-11-20T16:09:41;1.67;;;0.10;;
70477;SDS011;57956;53.362;-1.518;2022-11-20T16:12:08;1.10;;;0.20;;